Tahitian Princess — ZCDD8 — position and weather

sailwx.info

Track history (hours):
 
Tides and Currents Weather Stations Pressure Air Temp Water Temp Dewpoint Dewpoint Depression Visibility Wind Speed Wind Dir Waves Ship Positions

Tahitian Princess

Operator: P & O Irish Sea Ltd

Last reported at 2020-Oct-28 23:02 UTC. Time now 2020-Oct-29 02:44 UTC.
Position N 53°27' W 005°30'.

Length 167 m; draft 5.8 m.

Type: Passenger vessel. MMSI: 310362000.

Date/timePositionNaut miles runAvg speedWind from/ knotsBaromVisibWave heightAir tempDewpointWater temp
2020-Oct-28 23:02N 53°27' W 005°30'1019.5
2020-Oct-28 22:30N 53°24' W 005°46'1611.0
2020-Oct-28 21:00N 53°21' W 006°13'0 0.0
2020-Oct-28 20:00N 53°21' W 006°13'0 0.0
2020-Oct-28 17:30N 53°21' W 006°13'9515.9
2020-Oct-28 11:31N 53°33' W 003°34'1019.6
2020-Oct-28 11:01N 53°31' W 003°18'917.1
2020-Oct-28 10:31N 53°29' W 003°04'2 5.0
2020-Oct-28 10:00N 53°27' W 003°01'0 0.3
2020-Oct-28 08:30N 53°27' W 003°01'0 0.0
2020-Oct-28 07:30N 53°27' W 003°01'0 0.0
2020-Oct-28 06:30N 53°27' W 003°01'4 1.7
2020-Oct-28 04:00N 53°30' W 003°06'8516.4
2020-Oct-27 22:48N 53°27' W 005°30'2714.9
2020-Oct-27 21:00N 53°21' W 006°13'0 0.0
2020-Oct-27 20:01N 53°21' W 006°13'1 0.4
2020-Oct-27 17:00N 53°21' W 006°11'9515.9
2020-Oct-27 11:01N 53°33' W 003°32'918.0
2020-Oct-27 10:31N 53°32' W 003°17'1110.7
2020-Oct-27 09:31N 53°27' W 003°01'0 0.3
2020-Oct-27 08:01N 53°27' W 003°01'0 0.0
2020-Oct-27 07:31N 53°27' W 003°01'0 0.0
2020-Oct-27 06:00N 53°27' W 003°01'12 4.6
2020-Oct-27 03:30N 53°31' W 003°19'917.0
2020-Oct-27 03:00N 53°31' W 003°34'9611.1
2020-Oct-26 18:24N 53°21' W 006°13'0 0.0
2020-Oct-26 11:30N 53°21' W 006°13'0 0.0
2020-Oct-26 10:13N 53°21' W 006°13'0 0.0
2020-Oct-26 06:43N 53°21' W 006°13'0 0.0
2020-Oct-26 06:30N 53°21' W 006°13'0 0.0
2020-Oct-26 06:01N 53°21' W 006°13'0 0.3
2020-Oct-26 05:30N 53°21' W 006°13'2 4.5
2020-Oct-26 05:00N 53°21' W 006°09'9015.0
2020-Oct-25 23:00N 53°33' W 003°39'23 5.8
2020-Oct-25 18:58N 53°27' W 003°01'0 0.0
2020-Oct-25 18:28N 53°27' W 003°01'0 0.0
2020-Oct-25 17:28N 53°27' W 003°01'0 0.0
2020-Oct-25 16:28N 53°27' W 003°01'0 0.0
2020-Oct-25 15:58N 53°27' W 003°01'0 0.0
2020-Oct-25 15:28N 53°27' W 003°01'0 0.0
2020-Oct-25 14:28N 53°27' W 003°01'0 0.0
2020-Oct-25 10:28N 53°27' W 003°01'0 0.0
2020-Oct-25 08:28N 53°27' W 003°01'0 0.0
2020-Oct-25 05:30N 53°27' W 003°01'3 3.0
2020-Oct-25 04:31N 53°29' W 003°05'2617.2
2020-Oct-25 03:01N 53°32' W 003°48'12 9.9
2020-Oct-25 01:50N 53°33' W 004°08'4914.8
2020-Oct-24 22:30N 53°26' W 005°30'715.2
2020-Oct-24 22:00N 53°23' W 005°42'19 4.6
2020-Oct-24 17:52N 53°21' W 006°13'0 0.0
2020-Oct-24 16:28N 53°21' W 006°13'8615.7
2020-Oct-24 11:00N 53°34' W 003°50'1919.4
2020-Oct-24 10:01N 53°32' W 003°18'8 1.1
2020-Oct-24 03:00N 53°30' W 003°05'2717.7
2020-Oct-24 01:30N 53°32' W 003°50'6618.8
2020-Oct-23 22:00N 53°25' W 005°40'20 3.7
2020-Oct-23 16:30N 53°21' W 006°13'10217.1
2020-Oct-23 10:30N 53°33' W 003°22'14 6.8
2020-Oct-23 08:30N 53°27' W 003°01'0 0.0
2020-Oct-23 07:29N 53°27' W 003°01'0 0.0
2020-Oct-23 06:59N 53°27' W 003°01'0 0.0
2020-Oct-23 06:29N 53°27' W 003°01'0 0.1
2020-Oct-23 03:59N 53°27' W 003°01'8715.0
2020-Oct-22 22:11N 53°30' W 005°28'28 7.7
2020-Oct-22 18:30N 53°21' W 006°13'0 0.0
2020-Oct-22 18:00N 53°21' W 006°13'17 5.7
2020-Oct-22 15:01N 53°24' W 005°45'1019.3
2020-Oct-22 14:30N 53°27' W 005°29'6117.3
2020-Oct-22 11:00N 53°34' W 003°48'917.6
2020-Oct-22 10:30N 53°33' W 003°33'20 8.0
2020-Oct-22 08:00N 53°27' W 003°01'0 0.0
2020-Oct-22 07:30N 53°27' W 003°01'0 0.0
2020-Oct-22 06:30N 53°27' W 003°01'0 0.0
2020-Oct-22 05:00N 53°27' W 003°01'1 0.4
2020-Oct-22 03:30N 53°27' W 003°01'11515.3
2020-Oct-21 20:00N 53°21' W 006°13'0 0.0
2020-Oct-21 19:00N 53°21' W 006°13'0 0.0
2020-Oct-21 17:31N 53°21' W 006°13'24 7.9
2020-Oct-21 14:30N 53°26' W 005°35'8416.8
2020-Oct-21 09:30N 53°31' W 003°14'713.9
2020-Oct-21 09:00N 53°28' W 003°03'2 3.6
2020-Oct-21 08:30N 53°27' W 003°01'0 0.5
2020-Oct-21 07:29N 53°27' W 003°01'0 0.0
2020-Oct-21 06:29N 53°27' W 003°01'0 0.0
2020-Oct-21 05:59N 53°27' W 003°01'0 0.0
2020-Oct-21 04:29N 53°27' W 003°01'0 0.8
2020-Oct-21 03:59N 53°27' W 003°01'0 0.4
2020-Oct-21 03:29N 53°27' W 003°01'1313.0
2020-Oct-21 02:30N 53°31' W 003°21'10314.3
2020-Oct-20 19:19N 53°21' W 006°13'8 2.4
2020-Oct-20 16:00N 53°22' W 005°60'10714.2
2020-Oct-20 08:28N 53°27' W 003°01'0 0.1
2020-Oct-20 06:28N 53°27' W 003°01'0 0.0
2020-Oct-20 04:58N 53°27' W 003°01'0 0.4
2020-Oct-20 04:00N 53°27' W 003°01'0 0.4
2020-Oct-20 03:30N 53°27' W 003°01'11316.2
2020-Oct-19 20:30N 53°21' W 006°11'1 2.5
2020-Oct-19 20:00N 53°21' W 006°13'0 0.0
2020-Oct-19 14:56N 53°21' W 006°13'0 0.0
2020-Oct-19 13:53N 53°21' W 006°13'0 0.0
2020-Oct-19 12:47N 53°21' W 006°13'0 0.0
2020-Oct-19 10:59N 53°21' W 006°13'0 0.0
2020-Oct-19 08:53N 53°21' W 006°13'0 0.0
2020-Oct-19 08:17N 53°21' W 006°13'0 0.0
2020-Oct-19 06:59N 53°21' W 006°13'0 0.1
2020-Oct-19 04:29N 53°21' W 006°13'1812.3
2020-Oct-19 03:00N 53°25' W 005°43'815.7
2020-Oct-19 02:28N 53°27' W 005°30'  
Track history (hours):
 
Tides and Currents Weather Stations Pressure Air Temp Water Temp Dewpoint Dewpoint Depression Visibility Wind Speed Wind Dir Waves Ship Positions

Tahitian Princess

Operator: P & O Irish Sea Ltd

Last reported at 2020-Oct-28 23:02 UTC. Time now 2020-Oct-29 02:44 UTC.
Position N 53°27' W 005°30'.

Length 167 m; draft 5.8 m.

Type: Passenger vessel. MMSI: 310362000.

Date/timePositionNaut miles runAvg speedWind from/ knotsBaromVisibWave heightAir tempDewpointWater temp
2020-Oct-28 23:02N 53°27' W 005°30'1019.5
2020-Oct-28 22:30N 53°24' W 005°46'1611.0
2020-Oct-28 21:00N 53°21' W 006°13'0 0.0
2020-Oct-28 20:00N 53°21' W 006°13'0 0.0
2020-Oct-28 17:30N 53°21' W 006°13'9515.9
2020-Oct-28 11:31N 53°33' W 003°34'1019.6
2020-Oct-28 11:01N 53°31' W 003°18'917.1
2020-Oct-28 10:31N 53°29' W 003°04'2 5.0
2020-Oct-28 10:00N 53°27' W 003°01'0 0.3
2020-Oct-28 08:30N 53°27' W 003°01'0 0.0
2020-Oct-28 07:30N 53°27' W 003°01'0 0.0
2020-Oct-28 06:30N 53°27' W 003°01'4 1.7
2020-Oct-28 04:00N 53°30' W 003°06'8516.4
2020-Oct-27 22:48N 53°27' W 005°30'2714.9
2020-Oct-27 21:00N 53°21' W 006°13'0 0.0
2020-Oct-27 20:01N 53°21' W 006°13'1 0.4
2020-Oct-27 17:00N 53°21' W 006°11'9515.9
2020-Oct-27 11:01N 53°33' W 003°32'918.0
2020-Oct-27 10:31N 53°32' W 003°17'1110.7
2020-Oct-27 09:31N 53°27' W 003°01'0 0.3
2020-Oct-27 08:01N 53°27' W 003°01'0 0.0
2020-Oct-27 07:31N 53°27' W 003°01'0 0.0
2020-Oct-27 06:00N 53°27' W 003°01'12 4.6
2020-Oct-27 03:30N 53°31' W 003°19'917.0
2020-Oct-27 03:00N 53°31' W 003°34'9611.1
2020-Oct-26 18:24N 53°21' W 006°13'0 0.0
2020-Oct-26 11:30N 53°21' W 006°13'0 0.0
2020-Oct-26 10:13N 53°21' W 006°13'0 0.0
2020-Oct-26 06:43N 53°21' W 006°13'0 0.0
2020-Oct-26 06:30N 53°21' W 006°13'0 0.0
2020-Oct-26 06:01N 53°21' W 006°13'0 0.3
2020-Oct-26 05:30N 53°21' W 006°13'2 4.5
2020-Oct-26 05:00N 53°21' W 006°09'9015.0
2020-Oct-25 23:00N 53°33' W 003°39'23 5.8
2020-Oct-25 18:58N 53°27' W 003°01'0 0.0
2020-Oct-25 18:28N 53°27' W 003°01'0 0.0
2020-Oct-25 17:28N 53°27' W 003°01'0 0.0
2020-Oct-25 16:28N 53°27' W 003°01'0 0.0
2020-Oct-25 15:58N 53°27' W 003°01'0 0.0
2020-Oct-25 15:28N 53°27' W 003°01'0 0.0
2020-Oct-25 14:28N 53°27' W 003°01'0 0.0
2020-Oct-25 10:28N 53°27' W 003°01'0 0.0
2020-Oct-25 08:28N 53°27' W 003°01'0 0.0
2020-Oct-25 05:30N 53°27' W 003°01'3 3.0
2020-Oct-25 04:31N 53°29' W 003°05'2617.2
2020-Oct-25 03:01N 53°32' W 003°48'12 9.9
2020-Oct-25 01:50N 53°33' W 004°08'4914.8
2020-Oct-24 22:30N 53°26' W 005°30'715.2
2020-Oct-24 22:00N 53°23' W 005°42'19 4.6
2020-Oct-24 17:52N 53°21' W 006°13'0 0.0
2020-Oct-24 16:28N 53°21' W 006°13'8615.7
2020-Oct-24 11:00N 53°34' W 003°50'1919.4
2020-Oct-24 10:01N 53°32' W 003°18'8 1.1
2020-Oct-24 03:00N 53°30' W 003°05'2717.7
2020-Oct-24 01:30N 53°32' W 003°50'6618.8
2020-Oct-23 22:00N 53°25' W 005°40'20 3.7
2020-Oct-23 16:30N 53°21' W 006°13'10217.1
2020-Oct-23 10:30N 53°33' W 003°22'14 6.8
2020-Oct-23 08:30N 53°27' W 003°01'0 0.0
2020-Oct-23 07:29N 53°27' W 003°01'0 0.0
2020-Oct-23 06:59N 53°27' W 003°01'0 0.0
2020-Oct-23 06:29N 53°27' W 003°01'0 0.1
2020-Oct-23 03:59N 53°27' W 003°01'8715.0
2020-Oct-22 22:11N 53°30' W 005°28'28 7.7
2020-Oct-22 18:30N 53°21' W 006°13'0 0.0
2020-Oct-22 18:00N 53°21' W 006°13'17 5.7
2020-Oct-22 15:01N 53°24' W 005°45'1019.3
2020-Oct-22 14:30N 53°27' W 005°29'6117.3
2020-Oct-22 11:00N 53°34' W 003°48'917.6
2020-Oct-22 10:30N 53°33' W 003°33'20 8.0
2020-Oct-22 08:00N 53°27' W 003°01'0 0.0
2020-Oct-22 07:30N 53°27' W 003°01'0 0.0
2020-Oct-22 06:30N 53°27' W 003°01'0 0.0
2020-Oct-22 05:00N 53°27' W 003°01'1 0.4
2020-Oct-22 03:30N 53°27' W 003°01'11515.3
2020-Oct-21 20:00N 53°21' W 006°13'0 0.0
2020-Oct-21 19:00N 53°21' W 006°13'0 0.0
2020-Oct-21 17:31N 53°21' W 006°13'24 7.9
2020-Oct-21 14:30N 53°26' W 005°35'8416.8
2020-Oct-21 09:30N 53°31' W 003°14'713.9
2020-Oct-21 09:00N 53°28' W 003°03'2 3.6
2020-Oct-21 08:30N 53°27' W 003°01'0 0.5
2020-Oct-21 07:29N 53°27' W 003°01'0 0.0
2020-Oct-21 06:29N 53°27' W 003°01'0 0.0
2020-Oct-21 05:59N 53°27' W 003°01'0 0.0
2020-Oct-21 04:29N 53°27' W 003°01'0 0.8
2020-Oct-21 03:59N 53°27' W 003°01'0 0.4
2020-Oct-21 03:29N 53°27' W 003°01'1313.0
2020-Oct-21 02:30N 53°31' W 003°21'10314.3
2020-Oct-20 19:19N 53°21' W 006°13'8 2.4
2020-Oct-20 16:00N 53°22' W 005°60'10714.2
2020-Oct-20 08:28N 53°27' W 003°01'0 0.1
2020-Oct-20 06:28N 53°27' W 003°01'0 0.0
2020-Oct-20 04:58N 53°27' W 003°01'0 0.4
2020-Oct-20 04:00N 53°27' W 003°01'0 0.4
2020-Oct-20 03:30N 53°27' W 003°01'11316.2
2020-Oct-19 20:30N 53°21' W 006°11'1 2.5
2020-Oct-19 20:00N 53°21' W 006°13'0 0.0
2020-Oct-19 14:56N 53°21' W 006°13'0 0.0
2020-Oct-19 13:53N 53°21' W 006°13'0 0.0
2020-Oct-19 12:47N 53°21' W 006°13'0 0.0
2020-Oct-19 10:59N 53°21' W 006°13'0 0.0
2020-Oct-19 08:53N 53°21' W 006°13'0 0.0
2020-Oct-19 08:17N 53°21' W 006°13'0 0.0
2020-Oct-19 06:59N 53°21' W 006°13'0 0.1
2020-Oct-19 04:29N 53°21' W 006°13'1812.3
2020-Oct-19 03:00N 53°25' W 005°43'815.7
2020-Oct-19 02:28N 53°27' W 005°30'  

Dump ship's entire track history